sensor_id;sensor_type;location;lat;lon;timestamp;P1;durP1;ratioP1;P2;durP2;ratioP2
27580;SDS011;63557;52.302;7.964;2024-03-08T00:00:00;95.57;;;43.22;;
27580;SDS011;63557;52.302;7.964;2024-03-08T00:05:12;99.40;;;42.67;;
27580;SDS011;63557;52.302;7.964;2024-03-08T00:10:12;95.25;;;43.88;;
27580;SDS011;63557;52.302;7.964;2024-03-08T00:15:14;95.30;;;43.65;;
27580;SDS011;63557;52.302;7.964;2024-03-08T00:20:15;96.15;;;45.00;;
27580;SDS011;63557;52.302;7.964;2024-03-08T00:25:17;95.25;;;43.83;;
27580;SDS011;63557;52.302;7.964;2024-03-08T00:30:18;95.28;;;43.83;;
27580;SDS011;63557;52.302;7.964;2024-03-08T00:35:19;97.88;;;44.38;;
27580;SDS011;63557;52.302;7.964;2024-03-08T00:40:19;100.68;;;45.50;;
27580;SDS011;63557;52.302;7.964;2024-03-08T00:45:20;92.15;;;44.78;;
27580;SDS011;63557;52.302;7.964;2024-03-08T00:50:20;102.45;;;44.88;;
27580;SDS011;63557;52.302;7.964;2024-03-08T00:55:20;97.72;;;46.50;;
27580;SDS011;63557;52.302;7.964;2024-03-08T01:00:21;98.28;;;46.40;;
27580;SDS011;63557;52.302;7.964;2024-03-08T01:05:22;97.32;;;45.45;;
27580;SDS011;63557;52.302;7.964;2024-03-08T01:10:24;95.28;;;44.10;;
27580;SDS011;63557;52.302;7.964;2024-03-08T01:15:25;87.78;;;44.22;;
27580;SDS011;63557;52.302;7.964;2024-03-08T01:20:25;96.22;;;43.95;;
27580;SDS011;63557;52.302;7.964;2024-03-08T01:25:25;92.00;;;46.30;;
27580;SDS011;63557;52.302;7.964;2024-03-08T01:30:26;87.75;;;44.70;;
27580;SDS011;63557;52.302;7.964;2024-03-08T01:35:26;94.18;;;46.25;;
27580;SDS011;63557;52.302;7.964;2024-03-08T01:40:27;85.30;;;43.33;;
27580;SDS011;63557;52.302;7.964;2024-03-08T01:45:27;89.35;;;45.15;;
27580;SDS011;63557;52.302;7.964;2024-03-08T01:50:28;87.93;;;43.50;;
27580;SDS011;63557;52.302;7.964;2024-03-08T01:55:29;94.78;;;45.83;;
27580;SDS011;63557;52.302;7.964;2024-03-08T02:00:31;97.43;;;45.50;;
27580;SDS011;63557;52.302;7.964;2024-03-08T02:05:32;90.57;;;43.30;;
27580;SDS011;63557;52.302;7.964;2024-03-08T02:10:33;100.55;;;45.13;;
27580;SDS011;63557;52.302;7.964;2024-03-08T02:21:10;91.80;;;43.47;;
27580;SDS011;63557;52.302;7.964;2024-03-08T02:26:10;93.90;;;42.55;;
27580;SDS011;63557;52.302;7.964;2024-03-08T02:31:10;99.25;;;45.70;;
27580;SDS011;63557;52.302;7.964;2024-03-08T02:36:12;95.32;;;45.20;;
27580;SDS011;63557;52.302;7.964;2024-03-08T02:41:12;103.13;;;45.53;;
27580;SDS011;63557;52.302;7.964;2024-03-08T02:46:13;90.50;;;43.42;;
27580;SDS011;63557;52.302;7.964;2024-03-08T02:51:13;98.00;;;45.25;;
27580;SDS011;63557;52.302;7.964;2024-03-08T02:56:16;95.28;;;44.25;;
27580;SDS011;63557;52.302;7.964;2024-03-08T03:01:17;95.97;;;46.10;;
27580;SDS011;63557;52.302;7.964;2024-03-08T03:06:17;95.20;;;45.28;;
27580;SDS011;63557;52.302;7.964;2024-03-08T03:11:21;91.72;;;44.30;;
27580;SDS011;63557;52.302;7.964;2024-03-08T03:16:22;101.22;;;45.90;;
27580;SDS011;63557;52.302;7.964;2024-03-08T03:21:23;107.53;;;46.75;;
27580;SDS011;63557;52.302;7.964;2024-03-08T03:26:23;107.43;;;49.17;;
27580;SDS011;63557;52.302;7.964;2024-03-08T03:31:23;100.95;;;47.13;;
27580;SDS011;63557;52.302;7.964;2024-03-08T03:36:25;107.82;;;47.80;;
27580;SDS011;63557;52.302;7.964;2024-03-08T03:41:25;110.40;;;48.97;;
27580;SDS011;63557;52.302;7.964;2024-03-08T03:46:26;109.05;;;50.85;;
27580;SDS011;63557;52.302;7.964;2024-03-08T03:51:27;102.95;;;47.90;;
27580;SDS011;63557;52.302;7.964;2024-03-08T03:56:29;102.85;;;46.50;;
27580;SDS011;63557;52.302;7.964;2024-03-08T04:01:30;101.60;;;47.80;;
27580;SDS011;63557;52.302;7.964;2024-03-08T04:06:31;103.00;;;49.20;;
27580;SDS011;63557;52.302;7.964;2024-03-08T04:11:31;100.90;;;48.92;;
27580;SDS011;63557;52.302;7.964;2024-03-08T04:16:31;104.30;;;48.28;;
27580;SDS011;63557;52.302;7.964;2024-03-08T04:21:32;109.90;;;51.10;;
27580;SDS011;63557;52.302;7.964;2024-03-08T04:26:32;99.57;;;47.75;;
27580;SDS011;63557;52.302;7.964;2024-03-08T04:31:34;97.28;;;47.67;;
27580;SDS011;63557;52.302;7.964;2024-03-08T04:36:34;96.50;;;46.42;;
27580;SDS011;63557;52.302;7.964;2024-03-08T04:41:34;100.05;;;45.83;;
27580;SDS011;63557;52.302;7.964;2024-03-08T04:46:37;100.40;;;47.60;;
27580;SDS011;63557;52.302;7.964;2024-03-08T04:51:37;99.38;;;44.58;;
27580;SDS011;63557;52.302;7.964;2024-03-08T04:56:38;95.28;;;42.03;;
27580;SDS011;63557;52.302;7.964;2024-03-08T05:01:39;92.07;;;47.03;;
27580;SDS011;63557;52.302;7.964;2024-03-08T05:06:39;85.03;;;41.50;;
27580;SDS011;63557;52.302;7.964;2024-03-08T05:11:40;97.05;;;45.47;;
27580;SDS011;63557;52.302;7.964;2024-03-08T05:16:40;98.40;;;44.20;;
27580;SDS011;63557;52.302;7.964;2024-03-08T05:21:41;94.22;;;45.13;;
27580;SDS011;63557;52.302;7.964;2024-03-08T05:26:41;89.55;;;43.72;;
27580;SDS011;63557;52.302;7.964;2024-03-08T05:31:49;101.22;;;45.17;;
27580;SDS011;63557;52.302;7.964;2024-03-08T05:36:49;96.78;;;45.33;;
27580;SDS011;63557;52.302;7.964;2024-03-08T05:41:50;98.90;;;47.40;;
27580;SDS011;63557;52.302;7.964;2024-03-08T05:46:51;91.78;;;42.80;;
27580;SDS011;63557;52.302;7.964;2024-03-08T05:51:51;96.15;;;43.20;;
27580;SDS011;63557;52.302;7.964;2024-03-08T05:56:53;94.57;;;43.95;;
27580;SDS011;63557;52.302;7.964;2024-03-08T06:01:54;87.97;;;44.55;;
27580;SDS011;63557;52.302;7.964;2024-03-08T06:06:55;99.72;;;48.33;;
27580;SDS011;63557;52.302;7.964;2024-03-08T06:11:57;95.50;;;44.75;;
27580;SDS011;63557;52.302;7.964;2024-03-08T06:16:57;104.13;;;45.78;;
27580;SDS011;63557;52.302;7.964;2024-03-08T06:21:58;100.93;;;44.00;;
27580;SDS011;63557;52.302;7.964;2024-03-08T06:26:58;93.80;;;43.60;;
27580;SDS011;63557;52.302;7.964;2024-03-08T06:31:58;91.50;;;44.15;;
27580;SDS011;63557;52.302;7.964;2024-03-08T06:37:00;96.75;;;46.15;;
27580;SDS011;63557;52.302;7.964;2024-03-08T06:42:01;99.78;;;47.33;;
27580;SDS011;63557;52.302;7.964;2024-03-08T06:47:02;95.20;;;44.15;;
27580;SDS011;63557;52.302;7.964;2024-03-08T06:52:03;87.90;;;42.78;;
27580;SDS011;63557;52.302;7.964;2024-03-08T06:57:04;89.30;;;44.67;;
27580;SDS011;63557;52.302;7.964;2024-03-08T07:02:05;94.07;;;42.65;;
27580;SDS011;63557;52.302;7.964;2024-03-08T07:07:09;91.20;;;46.65;;
27580;SDS011;63557;52.302;7.964;2024-03-08T07:12:09;85.35;;;41.40;;
27580;SDS011;63557;52.302;7.964;2024-03-08T07:17:10;94.20;;;42.40;;
27580;SDS011;63557;52.302;7.964;2024-03-08T07:22:11;83.18;;;41.17;;
27580;SDS011;63557;52.302;7.964;2024-03-08T07:27:12;82.45;;;41.42;;
27580;SDS011;63557;52.302;7.964;2024-03-08T07:32:12;77.85;;;40.20;;
27580;SDS011;63557;52.302;7.964;2024-03-08T07:37:22;82.20;;;41.15;;
27580;SDS011;63557;52.302;7.964;2024-03-08T07:42:22;75.80;;;41.63;;
27580;SDS011;63557;52.302;7.964;2024-03-08T07:47:23;82.43;;;43.22;;
27580;SDS011;63557;52.302;7.964;2024-03-08T07:52:23;78.07;;;42.08;;
27580;SDS011;63557;52.302;7.964;2024-03-08T07:57:24;76.28;;;40.50;;
27580;SDS011;63557;52.302;7.964;2024-03-08T08:02:25;77.43;;;39.55;;
27580;SDS011;63557;52.302;7.964;2024-03-08T08:07:25;76.63;;;40.70;;
27580;SDS011;63557;52.302;7.964;2024-03-08T08:12:26;73.25;;;39.50;;
27580;SDS011;63557;52.302;7.964;2024-03-08T08:17:28;76.05;;;42.22;;
27580;SDS011;63557;52.302;7.964;2024-03-08T08:22:29;77.95;;;40.45;;
27580;SDS011;63557;52.302;7.964;2024-03-08T08:27:29;73.53;;;40.55;;
27580;SDS011;63557;52.302;7.964;2024-03-08T08:32:30;72.95;;;41.00;;
27580;SDS011;63557;52.302;7.964;2024-03-08T08:37:30;69.10;;;39.00;;
27580;SDS011;63557;52.302;7.964;2024-03-08T08:42:31;77.28;;;41.65;;
27580;SDS011;63557;52.302;7.964;2024-03-08T08:47:32;74.20;;;38.20;;
27580;SDS011;63557;52.302;7.964;2024-03-08T08:52:33;69.78;;;41.03;;
27580;SDS011;63557;52.302;7.964;2024-03-08T08:57:35;70.43;;;41.83;;
27580;SDS011;63557;52.302;7.964;2024-03-08T09:02:35;75.47;;;42.67;;
27580;SDS011;63557;52.302;7.964;2024-03-08T09:07:37;74.45;;;42.80;;
27580;SDS011;63557;52.302;7.964;2024-03-08T09:12:40;73.30;;;42.22;;
27580;SDS011;63557;52.302;7.964;2024-03-08T09:17:41;66.88;;;38.72;;
27580;SDS011;63557;52.302;7.964;2024-03-08T09:22:44;67.68;;;40.42;;
27580;SDS011;63557;52.302;7.964;2024-03-08T09:27:46;63.53;;;38.25;;
27580;SDS011;63557;52.302;7.964;2024-03-08T09:32:46;57.60;;;36.60;;
27580;SDS011;63557;52.302;7.964;2024-03-08T09:37:47;55.88;;;37.67;;
27580;SDS011;63557;52.302;7.964;2024-03-08T09:42:50;57.78;;;37.78;;
27580;SDS011;63557;52.302;7.964;2024-03-08T09:47:52;49.35;;;35.55;;
27580;SDS011;63557;52.302;7.964;2024-03-08T09:52:54;51.42;;;36.30;;
27580;SDS011;63557;52.302;7.964;2024-03-08T09:57:57;52.45;;;36.25;;
27580;SDS011;63557;52.302;7.964;2024-03-08T10:03:19;56.08;;;36.20;;
27580;SDS011;63557;52.302;7.964;2024-03-08T10:08:19;45.65;;;33.83;;
27580;SDS011;63557;52.302;7.964;2024-03-08T10:13:20;49.13;;;33.53;;
27580;SDS011;63557;52.302;7.964;2024-03-08T10:18:21;46.13;;;34.38;;
27580;SDS011;63557;52.302;7.964;2024-03-08T10:23:21;44.92;;;34.20;;
27580;SDS011;63557;52.302;7.964;2024-03-08T10:28:23;42.92;;;36.10;;
27580;SDS011;63557;52.302;7.964;2024-03-08T10:33:25;40.45;;;32.10;;
27580;SDS011;63557;52.302;7.964;2024-03-08T10:38:26;40.65;;;32.00;;
27580;SDS011;63557;52.302;7.964;2024-03-08T10:43:26;40.95;;;32.17;;
27580;SDS011;63557;52.302;7.964;2024-03-08T10:48:31;39.45;;;33.40;;
27580;SDS011;63557;52.302;7.964;2024-03-08T10:53:32;41.50;;;33.22;;
27580;SDS011;63557;52.302;7.964;2024-03-08T10:58:34;44.05;;;32.50;;
27580;SDS011;63557;52.302;7.964;2024-03-08T11:08:45;39.97;;;32.13;;
27580;SDS011;63557;52.302;7.964;2024-03-08T11:13:46;42.90;;;33.58;;
27580;SDS011;63557;52.302;7.964;2024-03-08T11:18:47;41.28;;;31.10;;
27580;SDS011;63557;52.302;7.964;2024-03-08T11:24:00;37.90;;;30.30;;
27580;SDS011;63557;52.302;7.964;2024-03-08T11:34:20;43.38;;;31.35;;
27580;SDS011;63557;52.302;7.964;2024-03-08T11:39:20;36.47;;;30.27;;
27580;SDS011;63557;52.302;7.964;2024-03-08T11:44:24;40.92;;;31.35;;
27580;SDS011;63557;52.302;7.964;2024-03-08T11:49:27;38.45;;;29.75;;
27580;SDS011;63557;52.302;7.964;2024-03-08T11:54:28;45.17;;;33.08;;
27580;SDS011;63557;52.302;7.964;2024-03-08T11:59:30;43.17;;;32.67;;
27580;SDS011;63557;52.302;7.964;2024-03-08T12:04:31;41.90;;;31.25;;
27580;SDS011;63557;52.302;7.964;2024-03-08T12:09:31;46.65;;;32.45;;
27580;SDS011;63557;52.302;7.964;2024-03-08T12:14:32;45.30;;;35.33;;
27580;SDS011;63557;52.302;7.964;2024-03-08T12:19:33;43.85;;;32.97;;
27580;SDS011;63557;52.302;7.964;2024-03-08T12:24:33;47.03;;;33.77;;
27580;SDS011;63557;52.302;7.964;2024-03-08T12:29:33;39.80;;;32.13;;
27580;SDS011;63557;52.302;7.964;2024-03-08T12:34:34;43.97;;;32.60;;
27580;SDS011;63557;52.302;7.964;2024-03-08T12:39:35;42.53;;;32.45;;
27580;SDS011;63557;52.302;7.964;2024-03-08T12:44:35;33.60;;;28.37;;
27580;SDS011;63557;52.302;7.964;2024-03-08T12:49:35;34.93;;;28.63;;
27580;SDS011;63557;52.302;7.964;2024-03-08T12:54:36;30.50;;;26.43;;
27580;SDS011;63557;52.302;7.964;2024-03-08T12:59:36;30.63;;;26.00;;
27580;SDS011;63557;52.302;7.964;2024-03-08T13:04:36;30.87;;;26.63;;
27580;SDS011;63557;52.302;7.964;2024-03-08T13:09:37;28.65;;;25.58;;
27580;SDS011;63557;52.302;7.964;2024-03-08T13:14:40;28.93;;;25.90;;
27580;SDS011;63557;52.302;7.964;2024-03-08T13:19:41;30.70;;;25.80;;
27580;SDS011;63557;52.302;7.964;2024-03-08T13:24:42;37.92;;;27.98;;
27580;SDS011;63557;52.302;7.964;2024-03-08T13:29:46;35.67;;;29.45;;
27580;SDS011;63557;52.302;7.964;2024-03-08T13:34:47;37.85;;;30.77;;
27580;SDS011;63557;52.302;7.964;2024-03-08T13:39:48;37.58;;;32.15;;
27580;SDS011;63557;52.302;7.964;2024-03-08T13:44:48;46.20;;;32.72;;
27580;SDS011;63557;52.302;7.964;2024-03-08T13:49:50;38.85;;;30.00;;
27580;SDS011;63557;52.302;7.964;2024-03-08T13:54:51;38.92;;;32.25;;
27580;SDS011;63557;52.302;7.964;2024-03-08T13:59:51;35.97;;;31.35;;
27580;SDS011;63557;52.302;7.964;2024-03-08T14:04:52;41.42;;;30.98;;
27580;SDS011;63557;52.302;7.964;2024-03-08T14:09:52;37.58;;;29.50;;
27580;SDS011;63557;52.302;7.964;2024-03-08T14:14:53;36.45;;;28.20;;
27580;SDS011;63557;52.302;7.964;2024-03-08T14:19:53;37.42;;;27.48;;
27580;SDS011;63557;52.302;7.964;2024-03-08T14:24:54;35.85;;;28.45;;
27580;SDS011;63557;52.302;7.964;2024-03-08T14:29:56;35.22;;;29.73;;
27580;SDS011;63557;52.302;7.964;2024-03-08T14:34:56;41.33;;;28.67;;
27580;SDS011;63557;52.302;7.964;2024-03-08T14:39:56;42.13;;;28.40;;
27580;SDS011;63557;52.302;7.964;2024-03-08T14:44:57;49.13;;;29.53;;
27580;SDS011;63557;52.302;7.964;2024-03-08T14:49:58;45.10;;;29.95;;
27580;SDS011;63557;52.302;7.964;2024-03-08T14:54:58;41.08;;;29.45;;
27580;SDS011;63557;52.302;7.964;2024-03-08T14:59:59;36.70;;;29.70;;
27580;SDS011;63557;52.302;7.964;2024-03-08T15:05:07;41.80;;;30.42;;
27580;SDS011;63557;52.302;7.964;2024-03-08T15:10:11;46.75;;;30.63;;
27580;SDS011;63557;52.302;7.964;2024-03-08T15:15:14;41.58;;;30.38;;
27580;SDS011;63557;52.302;7.964;2024-03-08T15:20:18;41.08;;;30.30;;
27580;SDS011;63557;52.302;7.964;2024-03-08T15:25:24;42.05;;;31.40;;
27580;SDS011;63557;52.302;7.964;2024-03-08T15:30:28;48.95;;;32.15;;
27580;SDS011;63557;52.302;7.964;2024-03-08T15:35:29;48.85;;;32.47;;
27580;SDS011;63557;52.302;7.964;2024-03-08T15:40:31;51.88;;;32.63;;
27580;SDS011;63557;52.302;7.964;2024-03-08T15:45:31;47.50;;;32.25;;
27580;SDS011;63557;52.302;7.964;2024-03-08T15:50:32;45.15;;;31.55;;
27580;SDS011;63557;52.302;7.964;2024-03-08T15:55:35;46.63;;;33.15;;
27580;SDS011;63557;52.302;7.964;2024-03-08T16:00:35;46.77;;;33.57;;
27580;SDS011;63557;52.302;7.964;2024-03-08T16:05:36;48.15;;;33.75;;
27580;SDS011;63557;52.302;7.964;2024-03-08T16:10:37;46.03;;;34.17;;
27580;SDS011;63557;52.302;7.964;2024-03-08T16:15:37;48.60;;;33.33;;
27580;SDS011;63557;52.302;7.964;2024-03-08T16:20:42;51.17;;;35.10;;
27580;SDS011;63557;52.302;7.964;2024-03-08T16:25:44;53.13;;;35.77;;
27580;SDS011;63557;52.302;7.964;2024-03-08T16:30:44;51.60;;;34.88;;
27580;SDS011;63557;52.302;7.964;2024-03-08T16:35:54;50.92;;;34.08;;
27580;SDS011;63557;52.302;7.964;2024-03-08T16:40:54;53.20;;;33.28;;
27580;SDS011;63557;52.302;7.964;2024-03-08T16:45:55;53.15;;;34.25;;
27580;SDS011;63557;52.302;7.964;2024-03-08T16:50:56;55.78;;;34.58;;
27580;SDS011;63557;52.302;7.964;2024-03-08T16:55:56;55.60;;;33.67;;
27580;SDS011;63557;52.302;7.964;2024-03-08T17:00:57;58.95;;;35.90;;
27580;SDS011;63557;52.302;7.964;2024-03-08T17:05:58;53.63;;;34.97;;
27580;SDS011;63557;52.302;7.964;2024-03-08T17:10:58;63.35;;;37.60;;
27580;SDS011;63557;52.302;7.964;2024-03-08T17:15:59;59.58;;;37.42;;
27580;SDS011;63557;52.302;7.964;2024-03-08T17:21:00;61.00;;;37.63;;
27580;SDS011;63557;52.302;7.964;2024-03-08T17:26:00;60.80;;;38.87;;
27580;SDS011;63557;52.302;7.964;2024-03-08T17:31:02;61.25;;;36.28;;
27580;SDS011;63557;52.302;7.964;2024-03-08T17:36:09;59.78;;;36.10;;
27580;SDS011;63557;52.302;7.964;2024-03-08T17:41:11;63.70;;;38.13;;
27580;SDS011;63557;52.302;7.964;2024-03-08T17:46:12;63.65;;;36.78;;
27580;SDS011;63557;52.302;7.964;2024-03-08T17:51:13;67.28;;;39.20;;
27580;SDS011;63557;52.302;7.964;2024-03-08T17:56:13;65.03;;;39.58;;
27580;SDS011;63557;52.302;7.964;2024-03-08T18:01:15;65.63;;;40.35;;
27580;SDS011;63557;52.302;7.964;2024-03-08T18:06:17;65.60;;;39.42;;
27580;SDS011;63557;52.302;7.964;2024-03-08T18:11:18;75.28;;;42.85;;
27580;SDS011;63557;52.302;7.964;2024-03-08T18:16:22;72.93;;;42.17;;
27580;SDS011;63557;52.302;7.964;2024-03-08T18:21:22;66.22;;;39.13;;
27580;SDS011;63557;52.302;7.964;2024-03-08T18:26:23;68.25;;;40.40;;
27580;SDS011;63557;52.302;7.964;2024-03-08T18:31:23;66.40;;;40.40;;
27580;SDS011;63557;52.302;7.964;2024-03-08T18:36:24;69.05;;;39.22;;
27580;SDS011;63557;52.302;7.964;2024-03-08T18:41:25;66.97;;;39.83;;
27580;SDS011;63557;52.302;7.964;2024-03-08T18:46:30;74.68;;;41.10;;
27580;SDS011;63557;52.302;7.964;2024-03-08T18:51:32;71.93;;;42.97;;
27580;SDS011;63557;52.302;7.964;2024-03-08T18:56:33;70.93;;;41.22;;
27580;SDS011;63557;52.302;7.964;2024-03-08T19:01:35;78.97;;;42.83;;
27580;SDS011;63557;52.302;7.964;2024-03-08T19:06:36;77.95;;;43.83;;
27580;SDS011;63557;52.302;7.964;2024-03-08T19:11:37;78.22;;;44.75;;
27580;SDS011;63557;52.302;7.964;2024-03-08T19:16:39;78.38;;;42.72;;
27580;SDS011;63557;52.302;7.964;2024-03-08T19:21:42;74.85;;;42.38;;
27580;SDS011;63557;52.302;7.964;2024-03-08T19:26:45;83.43;;;46.15;;
27580;SDS011;63557;52.302;7.964;2024-03-08T19:31:46;74.32;;;42.85;;
27580;SDS011;63557;52.302;7.964;2024-03-08T19:36:46;86.57;;;45.95;;
27580;SDS011;63557;52.302;7.964;2024-03-08T19:41:48;84.22;;;45.13;;
27580;SDS011;63557;52.302;7.964;2024-03-08T19:46:48;80.22;;;44.08;;
27580;SDS011;63557;52.302;7.964;2024-03-08T19:51:49;77.75;;;44.95;;
27580;SDS011;63557;52.302;7.964;2024-03-08T19:56:49;76.90;;;43.95;;
27580;SDS011;63557;52.302;7.964;2024-03-08T20:01:51;84.75;;;44.95;;
27580;SDS011;63557;52.302;7.964;2024-03-08T20:06:52;77.55;;;43.67;;
27580;SDS011;63557;52.302;7.964;2024-03-08T20:11:52;82.28;;;44.78;;
27580;SDS011;63557;52.302;7.964;2024-03-08T20:16:53;76.80;;;41.10;;
27580;SDS011;63557;52.302;7.964;2024-03-08T20:21:53;73.35;;;42.53;;
27580;SDS011;63557;52.302;7.964;2024-03-08T20:26:54;69.20;;;40.10;;
27580;SDS011;63557;52.302;7.964;2024-03-08T20:31:55;84.45;;;46.33;;
27580;SDS011;63557;52.302;7.964;2024-03-08T20:36:55;71.10;;;41.67;;
27580;SDS011;63557;52.302;7.964;2024-03-08T20:41:55;77.80;;;42.33;;
27580;SDS011;63557;52.302;7.964;2024-03-08T20:46:56;82.70;;;44.78;;
27580;SDS011;63557;52.302;7.964;2024-03-08T20:51:57;77.80;;;45.13;;
27580;SDS011;63557;52.302;7.964;2024-03-08T20:57:00;78.60;;;43.25;;
27580;SDS011;63557;52.302;7.964;2024-03-08T21:02:00;77.22;;;42.75;;
27580;SDS011;63557;52.302;7.964;2024-03-08T21:07:01;70.95;;;40.38;;
27580;SDS011;63557;52.302;7.964;2024-03-08T21:12:02;76.50;;;41.28;;
27580;SDS011;63557;52.302;7.964;2024-03-08T21:17:06;82.63;;;43.55;;
27580;SDS011;63557;52.302;7.964;2024-03-08T21:22:07;71.18;;;41.53;;
27580;SDS011;63557;52.302;7.964;2024-03-08T21:27:07;81.20;;;43.10;;
27580;SDS011;63557;52.302;7.964;2024-03-08T21:32:08;77.05;;;41.53;;
27580;SDS011;63557;52.302;7.964;2024-03-08T21:37:08;80.95;;;42.78;;
27580;SDS011;63557;52.302;7.964;2024-03-08T21:42:10;75.82;;;42.80;;
27580;SDS011;63557;52.302;7.964;2024-03-08T21:47:11;82.30;;;43.90;;
27580;SDS011;63557;52.302;7.964;2024-03-08T21:52:11;68.18;;;40.47;;
27580;SDS011;63557;52.302;7.964;2024-03-08T21:57:13;70.00;;;40.00;;
27580;SDS011;63557;52.302;7.964;2024-03-08T22:02:13;76.80;;;41.50;;
27580;SDS011;63557;52.302;7.964;2024-03-08T22:07:13;76.22;;;42.83;;
27580;SDS011;63557;52.302;7.964;2024-03-08T22:12:14;76.97;;;40.85;;
27580;SDS011;63557;52.302;7.964;2024-03-08T22:17:14;73.32;;;40.00;;
27580;SDS011;63557;52.302;7.964;2024-03-08T22:22:16;68.47;;;39.65;;
27580;SDS011;63557;52.302;7.964;2024-03-08T22:27:18;72.50;;;38.90;;
27580;SDS011;63557;52.302;7.964;2024-03-08T22:32:20;66.80;;;37.67;;
27580;SDS011;63557;52.302;7.964;2024-03-08T22:37:22;68.72;;;38.08;;
27580;SDS011;63557;52.302;7.964;2024-03-08T22:42:22;80.72;;;37.90;;
27580;SDS011;63557;52.302;7.964;2024-03-08T22:47:24;71.78;;;37.55;;
27580;SDS011;63557;52.302;7.964;2024-03-08T22:52:25;66.95;;;37.72;;
27580;SDS011;63557;52.302;7.964;2024-03-08T22:57:27;75.22;;;38.80;;
27580;SDS011;63557;52.302;7.964;2024-03-08T23:02:27;66.40;;;37.45;;
27580;SDS011;63557;52.302;7.964;2024-03-08T23:07:28;71.63;;;38.38;;
27580;SDS011;63557;52.302;7.964;2024-03-08T23:12:31;68.65;;;37.05;;
27580;SDS011;63557;52.302;7.964;2024-03-08T23:17:34;66.50;;;35.63;;
27580;SDS011;63557;52.302;7.964;2024-03-08T23:22:34;70.95;;;36.95;;
27580;SDS011;63557;52.302;7.964;2024-03-08T23:27:34;66.57;;;35.83;;
27580;SDS011;63557;52.302;7.964;2024-03-08T23:32:35;69.15;;;34.40;;
27580;SDS011;63557;52.302;7.964;2024-03-08T23:37:35;69.28;;;37.30;;
27580;SDS011;63557;52.302;7.964;2024-03-08T23:42:35;67.97;;;35.78;;
27580;SDS011;63557;52.302;7.964;2024-03-08T23:52:44;70.50;;;35.70;;
27580;SDS011;63557;52.302;7.964;2024-03-08T23:57:46;73.03;;;38.13;;
